createdAt,value
2018-12-09T00:00:12.311Z,1.13
2018-12-09T00:02:43.892Z,0.87
2018-12-09T00:05:15.751Z,0.93
2018-12-09T00:07:47.490Z,0.80
2018-12-09T00:10:19.101Z,0.90
2018-12-09T00:12:50.962Z,0.97
2018-12-09T00:15:22.390Z,1.00
2018-12-09T00:17:54.011Z,0.90
2018-12-09T00:20:25.581Z,1.07
2018-12-09T00:22:57.200Z,1.10
2018-12-09T00:25:29.470Z,0.80
2018-12-09T00:28:00.970Z,1.10
2018-12-09T00:30:32.451Z,0.80
2018-12-09T00:33:04.131Z,0.80
2018-12-09T00:35:35.660Z,0.40
2018-12-09T00:38:07.360Z,0.40
2018-12-09T00:40:39.139Z,0.40
2018-12-09T00:43:10.564Z,0.40
2018-12-09T00:45:42.190Z,0.80
2018-12-09T00:48:13.740Z,0.60
2018-12-09T00:50:45.811Z,0.87
2018-12-09T00:53:17.130Z,1.07
2018-12-09T00:55:48.611Z,0.70
2018-12-09T00:58:20.183Z,0.77
2018-12-09T01:00:51.972Z,0.77
2018-12-09T01:03:23.361Z,0.80
2018-12-09T01:05:54.951Z,0.70
2018-12-09T01:08:26.551Z,0.70
2018-12-09T01:10:58.141Z,0.60
2018-12-09T01:13:29.690Z,0.50
2018-12-09T01:16:01.624Z,0.50
2018-12-09T01:18:33.133Z,0.50
2018-12-09T01:21:04.741Z,0.57
2018-12-09T01:23:36.220Z,0.50
2018-12-09T01:26:08.020Z,0.57
2018-12-09T01:28:39.820Z,0.60
2018-12-09T01:31:11.260Z,0.83
2018-12-09T01:33:42.622Z,0.70
2018-12-09T01:36:14.190Z,0.53
2018-12-09T01:38:46.291Z,0.70
2018-12-09T01:41:17.931Z,0.80
2018-12-09T01:43:49.401Z,0.60
2018-12-09T01:46:20.901Z,0.60
2018-12-09T01:48:52.380Z,0.60
2018-12-09T01:51:24.494Z,0.60
2018-12-09T01:54:14.031Z,0.67
2018-12-09T01:56:46.561Z,0.87
2018-12-09T01:59:18.221Z,0.40
2018-12-09T02:01:49.821Z,0.37
2018-12-09T02:04:21.871Z,0.30
2018-12-09T02:06:53.541Z,0.40
2018-12-09T02:09:25.141Z,0.60
2018-12-09T02:11:56.681Z,0.37
2018-12-09T02:14:28.378Z,0.43
2018-12-09T02:17:00.121Z,0.40
2018-12-09T02:19:31.964Z,0.33
2018-12-09T02:22:03.404Z,0.60
2018-12-09T02:24:35.040Z,0.40
2018-12-09T02:27:06.651Z,0.40
2018-12-09T02:29:38.840Z,0.50
2018-12-09T02:32:11.152Z,0.30
2018-12-09T02:34:53.798Z,0.47
2018-12-09T02:37:25.361Z,0.40
2018-12-09T02:39:57.450Z,0.30
2018-12-09T02:42:29.271Z,0.27
2018-12-09T02:45:00.942Z,0.30
2018-12-09T02:47:32.621Z,0.40
2018-12-09T02:50:04.231Z,0.40
2018-12-09T02:52:36.312Z,0.40
2018-12-09T02:55:08.091Z,0.40
2018-12-09T02:57:39.620Z,0.30
2018-12-09T03:00:11.351Z,0.40
2018-12-09T03:02:43.051Z,0.30
2018-12-09T03:05:14.701Z,0.20
2018-12-09T03:07:46.653Z,0.30
2018-12-09T03:10:18.184Z,0.10
2018-12-09T03:12:49.901Z,0.23
2018-12-09T03:15:21.470Z,0.40
2018-12-09T03:17:53.580Z,0.30
2018-12-09T03:20:25.191Z,0.50
2018-12-09T03:22:56.751Z,0.30
2018-12-09T03:25:28.290Z,0.50
2018-12-09T03:28:00.321Z,0.70
2018-12-09T03:30:31.960Z,0.10
2018-12-09T03:33:03.635Z,0.20
2018-12-09T03:35:35.440Z,0.30
2018-12-09T03:38:07.181Z,0.33
2018-12-09T03:40:38.972Z,0.40
2018-12-09T03:43:10.631Z,0.30
2018-12-09T03:45:43.582Z,0.30
2018-12-09T03:48:15.612Z,0.30
2018-12-09T03:50:47.121Z,0.40
2018-12-09T03:53:18.882Z,0.40
2018-12-09T03:55:50.683Z,0.20
2018-12-09T03:58:22.400Z,0.40
2018-12-09T04:00:53.914Z,0.30
2018-12-09T04:03:26.541Z,0.40
2018-12-09T04:05:58.031Z,0.23
2018-12-09T04:08:29.681Z,0.30
2018-12-09T04:11:01.193Z,0.33
2018-12-09T04:13:33.001Z,0.60
2018-12-09T04:16:04.453Z,0.40
2018-12-09T04:18:36.071Z,0.30
2018-12-09T04:21:08.357Z,0.37
2018-12-09T04:23:39.923Z,0.50
2018-12-09T04:26:11.451Z,0.60
2018-12-09T04:28:42.932Z,0.80
2018-12-09T04:31:15.441Z,0.80
2018-12-09T04:33:47.180Z,0.70
2018-12-09T04:36:18.755Z,0.90
2018-12-09T04:38:50.303Z,0.70
2018-12-09T04:41:22.001Z,0.70
2018-12-09T04:43:54.101Z,0.60
2018-12-09T04:46:25.623Z,0.80
2018-12-09T04:48:57.233Z,1.00
2018-12-09T04:51:43.662Z,0.80
2018-12-09T04:54:15.331Z,0.40
2018-12-09T04:56:47.231Z,0.30
2018-12-09T04:59:21.413Z,0.37
2018-12-09T05:01:52.803Z,0.80
2018-12-09T05:04:24.441Z,0.93
2018-12-09T05:06:56.092Z,0.90
2018-12-09T05:09:28.241Z,0.90
2018-12-09T05:11:59.752Z,0.70
2018-12-09T05:14:31.433Z,0.60
2018-12-09T05:17:02.981Z,0.63
2018-12-09T05:19:34.572Z,0.60
2018-12-09T05:22:06.082Z,0.57
2018-12-09T05:24:37.521Z,0.70
2018-12-09T05:27:09.132Z,0.60
2018-12-09T05:29:40.592Z,0.40
2018-12-09T05:32:12.092Z,0.63
2018-12-09T05:34:43.842Z,0.80
2018-12-09T05:37:15.361Z,0.77
2018-12-09T05:39:46.971Z,0.77
2018-12-09T05:42:18.682Z,0.80
2018-12-09T05:44:50.191Z,0.30
2018-12-09T05:47:21.971Z,0.50
2018-12-09T05:49:53.771Z,0.40
2018-12-09T05:52:25.371Z,0.40
2018-12-09T05:54:57.331Z,0.60
2018-12-09T05:57:28.794Z,0.70
2018-12-09T06:00:00.312Z,0.80
2018-12-09T06:02:47.941Z,0.90
2018-12-09T06:05:19.652Z,0.93
2018-12-09T06:07:52.602Z,0.90
2018-12-09T06:10:24.762Z,0.80
2018-12-09T06:12:56.571Z,1.00
2018-12-09T06:15:28.052Z,0.67
2018-12-09T06:18:01.012Z,0.50
2018-12-09T06:20:32.731Z,0.50
2018-12-09T06:23:04.742Z,0.60
2018-12-09T06:25:36.354Z,0.33
2018-12-09T06:28:08.061Z,0.40
2018-12-09T06:30:39.673Z,0.50
2018-12-09T06:33:11.701Z,0.40
2018-12-09T06:35:43.251Z,0.30
2018-12-09T06:38:14.861Z,0.33
2018-12-09T06:40:47.062Z,0.93
2018-12-09T06:43:18.501Z,0.80
2018-12-09T06:45:50.271Z,1.10
2018-12-09T06:48:21.862Z,1.10
2018-12-09T06:50:53.951Z,1.13
2018-12-09T06:53:25.501Z,1.90
2018-12-09T06:55:57.101Z,1.30
2018-12-09T06:58:28.932Z,1.00
2018-12-09T07:01:00.432Z,1.10
2018-12-09T07:03:32.402Z,1.00
2018-12-09T07:06:04.122Z,0.90
2018-12-09T07:08:35.561Z,0.97
2018-12-09T07:11:06.962Z,0.80
2018-12-09T07:13:38.742Z,0.77
2018-12-09T07:16:10.122Z,0.93
2018-12-09T07:18:41.952Z,0.90
2018-12-09T07:21:14.092Z,1.07
2018-12-09T07:23:46.032Z,1.60
2018-12-09T07:26:17.771Z,1.30
2018-12-09T07:28:49.442Z,1.10
2018-12-09T07:31:21.454Z,1.37
2018-12-09T07:33:53.212Z,1.40
2018-12-09T07:36:24.843Z,1.50
2018-12-09T07:38:56.492Z,1.97
2018-12-09T07:41:28.001Z,1.87
2018-12-09T07:44:00.172Z,1.83
2018-12-09T07:46:32.712Z,1.90
2018-12-09T07:49:04.372Z,1.33
2018-12-09T07:51:37.382Z,1.60
2018-12-09T07:54:09.392Z,0.97
2018-12-09T07:56:41.183Z,0.70
2018-12-09T07:59:13.052Z,0.37
2018-12-09T08:01:44.852Z,1.00
2018-12-09T08:04:16.332Z,0.47
2018-12-09T08:06:48.154Z,0.50
2018-12-09T08:09:19.862Z,0.63
2018-12-09T08:11:51.282Z,0.37
2018-12-09T08:14:23.082Z,2.20
2018-12-09T08:17:01.345Z,1.90
2018-12-09T08:19:33.300Z,1.20
2018-12-09T08:22:06.856Z,1.87
2018-12-09T08:24:43.847Z,1.27
2018-12-09T08:27:14.922Z,0.60
2018-12-09T08:29:45.989Z,0.80
2018-12-09T08:32:17.184Z,1.00
2018-12-09T08:34:49.192Z,0.90
2018-12-09T08:37:20.363Z,0.87
2018-12-09T08:39:51.287Z,0.83
2018-12-09T08:42:22.690Z,1.40
2018-12-09T08:44:53.713Z,1.80
2018-12-09T08:47:25.281Z,1.30
2018-12-09T08:49:56.265Z,1.60
2018-12-09T08:52:27.397Z,0.77
2018-12-09T08:54:59.679Z,0.63
2018-12-09T08:57:32.351Z,0.30
2018-12-09T09:00:04.140Z,1.40
2018-12-09T09:02:35.941Z,1.60
2018-12-09T09:05:08.021Z,1.60
2018-12-09T09:07:40.150Z,1.30
2018-12-09T09:10:12.650Z,1.13
2018-12-09T09:12:43.898Z,1.10
2018-12-09T09:15:15.126Z,1.90
2018-12-09T09:17:47.195Z,1.80
2018-12-09T09:20:19.279Z,1.70
2018-12-09T09:22:51.270Z,2.10
2018-12-09T09:25:23.403Z,3.43
2018-12-09T09:27:55.071Z,2.07
2018-12-09T09:30:27.029Z,1.73
2018-12-09T09:32:58.829Z,1.97
2018-12-09T09:35:30.549Z,1.90
2018-12-09T09:38:02.240Z,1.90
2018-12-09T09:40:34.079Z,1.90
2018-12-09T09:43:06.199Z,2.03
2018-12-09T09:45:38.090Z,2.07
2018-12-09T09:48:10.379Z,3.00
2018-12-09T09:50:41.868Z,2.20
2018-12-09T09:53:13.939Z,1.70
2018-12-09T09:55:45.664Z,1.80
2018-12-09T09:58:17.339Z,2.00
2018-12-09T10:00:48.931Z,2.30
2018-12-09T10:03:25.827Z,1.90
2018-12-09T10:05:55.071Z,1.60
2018-12-09T10:08:27.210Z,2.30
2018-12-09T10:11:00.360Z,2.20
2018-12-09T10:13:31.979Z,2.37
2018-12-09T10:16:03.590Z,2.47
2018-12-09T10:18:35.180Z,1.70
2018-12-09T10:21:06.793Z,1.97
2018-12-09T10:23:38.103Z,2.10
2018-12-09T10:26:09.333Z,2.17
2018-12-09T10:28:40.389Z,2.40
2018-12-09T10:31:11.628Z,4.00
2018-12-09T10:33:43.028Z,2.57
2018-12-09T10:36:14.332Z,1.93
2018-12-09T10:38:45.717Z,2.00
2018-12-09T10:41:16.746Z,2.07
2018-12-09T10:43:48.912Z,1.60
2018-12-09T10:46:21.825Z,1.77
2018-12-09T10:48:54.580Z,1.43
2018-12-09T10:51:26.256Z,1.40
2018-12-09T10:53:57.511Z,1.20
2018-12-09T10:56:28.917Z,1.30
2018-12-09T10:59:00.260Z,1.00
2018-12-09T11:01:36.685Z,1.10
2018-12-09T11:04:09.837Z,1.10
2018-12-09T11:06:41.219Z,1.00
2018-12-09T11:09:14.505Z,3.87
2018-12-09T11:11:46.743Z,1.60
2018-12-09T11:14:19.329Z,1.10
2018-12-09T11:16:51.050Z,1.10
2018-12-09T11:19:23.779Z,1.10
2018-12-09T11:21:55.890Z,1.30
2018-12-09T11:24:28.201Z,1.57
2018-12-09T11:26:59.951Z,1.40
2018-12-09T11:29:31.639Z,1.67
2018-12-09T11:32:03.470Z,12.70
2018-12-09T11:34:35.560Z,5.20
2018-12-09T11:37:07.950Z,4.53
2018-12-09T11:39:39.492Z,1.80
2018-12-09T11:42:12.122Z,1.97
2018-12-09T11:44:48.541Z,1.80
2018-12-09T11:47:20.546Z,1.57
2018-12-09T11:49:52.678Z,5.63
2018-12-09T11:52:24.257Z,3.87
2018-12-09T11:54:57.540Z,2.40
2018-12-09T11:57:29.850Z,1.50
2018-12-09T12:00:02.225Z,1.60
2018-12-09T12:02:34.330Z,2.20
2018-12-09T12:05:08.020Z,0.90
2018-12-09T12:07:40.460Z,0.70
2018-12-09T12:10:13.190Z,0.90
2018-12-09T12:12:45.851Z,0.80
2018-12-09T12:15:19.871Z,0.80
2018-12-09T12:17:52.510Z,1.23
2018-12-09T12:20:25.250Z,1.17
2018-12-09T12:22:57.871Z,0.90
2018-12-09T12:25:30.611Z,1.20
2018-12-09T12:28:03.341Z,1.00
2018-12-09T12:30:36.321Z,0.90
2018-12-09T12:33:09.491Z,1.07
2018-12-09T12:35:41.963Z,0.90
2018-12-09T12:38:14.646Z,1.27
2018-12-09T12:40:48.521Z,1.30
2018-12-09T12:43:20.936Z,1.00
2018-12-09T12:45:52.915Z,1.10
2018-12-09T12:48:25.020Z,1.73
2018-12-09T12:50:57.221Z,1.57
2018-12-09T12:53:28.986Z,1.27
2018-12-09T12:56:00.687Z,1.40
2018-12-09T12:58:32.395Z,1.10
2018-12-09T13:01:11.042Z,1.87
2018-12-09T13:03:43.740Z,1.50
2018-12-09T13:06:16.331Z,1.27
2018-12-09T13:08:49.391Z,1.30
2018-12-09T13:11:22.190Z,1.40
2018-12-09T13:13:54.720Z,1.13
2018-12-09T13:16:28.482Z,1.03
2018-12-09T13:19:02.261Z,1.17
2018-12-09T13:21:35.271Z,1.17
2018-12-09T13:24:07.364Z,1.20
2018-12-09T13:26:39.168Z,1.30
2018-12-09T13:29:12.634Z,1.30
2018-12-09T13:31:46.294Z,0.90
2018-12-09T13:34:19.123Z,0.87
2018-12-09T13:36:53.214Z,1.10
2018-12-09T13:39:25.274Z,0.90
2018-12-09T13:41:57.773Z,1.10
2018-12-09T13:44:30.144Z,1.00
2018-12-09T13:47:02.545Z,1.00
2018-12-09T13:49:34.898Z,0.90
2018-12-09T13:52:09.375Z,0.90
2018-12-09T13:54:41.447Z,1.10
2018-12-09T13:57:13.513Z,1.10
2018-12-09T13:59:45.684Z,1.20
2018-12-09T14:02:17.963Z,1.00
2018-12-09T14:04:50.264Z,1.00
2018-12-09T14:07:22.445Z,1.30
2018-12-09T14:09:54.394Z,1.20
2018-12-09T14:12:28.424Z,1.23
2018-12-09T14:15:00.999Z,1.30
2018-12-09T14:17:34.544Z,1.10
2018-12-09T14:20:08.513Z,1.23
2018-12-09T14:22:40.604Z,1.30
2018-12-09T14:25:12.585Z,1.07
2018-12-09T14:27:44.734Z,1.00
2018-12-09T14:30:18.194Z,1.07
2018-12-09T14:32:50.415Z,0.90
2018-12-09T14:35:23.364Z,0.60
2018-12-09T14:37:56.214Z,0.70
2018-12-09T14:40:29.654Z,0.77
2018-12-09T14:43:02.135Z,0.80
2018-12-09T14:45:34.473Z,0.80
2018-12-09T14:48:06.784Z,0.67
2018-12-09T14:50:39.723Z,0.67
2018-12-09T14:53:11.754Z,0.80
2018-12-09T14:55:43.915Z,0.60
2018-12-09T14:58:16.503Z,0.60
2018-12-09T15:00:49.724Z,1.00
2018-12-09T15:03:21.776Z,0.70
2018-12-09T15:05:54.524Z,0.50
2018-12-09T15:08:27.094Z,0.67
2018-12-09T15:10:59.093Z,0.50
2018-12-09T15:13:31.514Z,0.67
2018-12-09T15:16:05.473Z,0.73
2018-12-09T15:18:37.644Z,0.70
2018-12-09T15:21:09.764Z,0.70
2018-12-09T15:23:42.694Z,0.90
2018-12-09T15:26:14.785Z,1.20
2018-12-09T15:28:46.884Z,0.80
2018-12-09T15:31:18.876Z,0.60
2018-12-09T15:33:51.394Z,0.70
2018-12-09T15:36:23.784Z,0.93
2018-12-09T15:38:56.664Z,1.00
2018-12-09T15:41:31.485Z,1.13
2018-12-09T15:44:04.044Z,1.27
2018-12-09T15:46:36.524Z,1.20
2018-12-09T15:49:08.654Z,1.30
2018-12-09T15:51:41.324Z,1.20
2018-12-09T15:54:14.694Z,1.50
2018-12-09T15:56:46.674Z,1.50
2018-12-09T15:59:20.941Z,1.80
2018-12-09T16:01:54.384Z,1.50
2018-12-09T16:04:27.494Z,1.50
2018-12-09T16:06:59.495Z,1.30
2018-12-09T16:09:31.774Z,0.93
2018-12-09T16:12:09.255Z,1.10
2018-12-09T16:14:41.343Z,1.20
2018-12-09T16:17:13.343Z,1.13
2018-12-09T16:19:48.264Z,1.10
2018-12-09T16:22:21.533Z,1.10
2018-12-09T16:24:54.583Z,1.00
2018-12-09T16:27:26.734Z,1.67
2018-12-09T16:30:02.384Z,1.03
2018-12-09T16:32:34.843Z,1.27
2018-12-09T16:35:08.743Z,1.10
2018-12-09T16:37:42.385Z,1.37
2018-12-09T16:40:14.663Z,1.13
2018-12-09T16:42:46.645Z,1.20
2018-12-09T16:45:19.654Z,1.17
2018-12-09T16:47:52.484Z,1.50
2018-12-09T16:53:02.363Z,1.40
2018-12-09T16:55:34.724Z,1.53
2018-12-09T16:58:06.953Z,2.37
2018-12-09T17:00:39.384Z,1.67
2018-12-09T17:03:14.814Z,1.80
2018-12-09T17:05:49.914Z,1.83
2018-12-09T17:08:22.344Z,2.30
2018-12-09T17:10:54.564Z,1.63
2018-12-09T17:13:27.803Z,1.43
2018-12-09T17:16:00.574Z,1.40
2018-12-09T17:18:32.645Z,1.57
2018-12-09T17:21:08.174Z,1.40
2018-12-09T17:23:40.345Z,1.50
2018-12-09T17:26:13.324Z,1.57
2018-12-09T17:28:45.454Z,1.10
2018-12-09T17:31:18.224Z,1.20
2018-12-09T17:33:50.484Z,2.10
2018-12-09T17:36:22.843Z,1.30
2018-12-09T17:38:58.381Z,1.50
2018-12-09T17:41:31.134Z,1.77
2018-12-09T17:44:03.144Z,1.50
2018-12-09T17:46:35.425Z,1.50
2018-12-09T17:49:07.844Z,1.40
2018-12-09T17:51:41.814Z,1.33
2018-12-09T17:54:14.260Z,1.53
2018-12-09T17:56:46.414Z,1.40
2018-12-09T17:59:18.853Z,1.63
2018-12-09T18:01:53.374Z,1.80
2018-12-09T18:04:27.514Z,1.50
2018-12-09T18:07:00.817Z,1.80
2018-12-09T18:09:33.604Z,1.63
2018-12-09T18:12:06.024Z,1.90
2018-12-09T18:17:19.145Z,1.70
2018-12-09T18:19:51.564Z,1.60
2018-12-09T18:22:24.615Z,1.60
2018-12-09T18:24:57.667Z,1.70
2018-12-09T18:27:31.145Z,1.60
2018-12-09T18:30:03.098Z,2.07
2018-12-09T18:32:40.723Z,1.50
2018-12-09T18:35:14.994Z,1.57
2018-12-09T18:37:48.374Z,1.40
2018-12-09T18:40:23.014Z,1.47
2018-12-09T18:42:55.165Z,1.33
2018-12-09T18:45:28.275Z,1.30
2018-12-09T18:48:03.174Z,1.77
2018-12-09T18:50:39.151Z,1.50
2018-12-09T18:53:11.324Z,1.80
2018-12-09T18:55:43.364Z,1.77
2018-12-09T18:58:15.594Z,1.80
2018-12-09T19:00:48.877Z,1.80
2018-12-09T19:03:21.354Z,2.10
2018-12-09T19:05:55.204Z,1.90
2018-12-09T19:08:32.374Z,4.30
2018-12-09T19:11:04.964Z,3.17
2018-12-09T19:13:37.574Z,5.53
2018-12-09T19:16:10.944Z,2.87
2018-12-09T19:18:44.620Z,3.90
2018-12-09T19:21:16.662Z,2.63
2018-12-09T19:23:51.170Z,4.73
2018-12-09T19:26:26.094Z,4.60
2018-12-09T19:28:58.725Z,4.73
2018-12-09T19:31:34.438Z,4.63
2018-12-09T19:34:08.966Z,3.00
2018-12-09T19:36:44.234Z,2.67
2018-12-09T19:39:21.293Z,2.50
2018-12-09T19:41:56.364Z,2.90
2018-12-09T19:44:32.059Z,6.63
2018-12-09T19:47:04.875Z,4.13
2018-12-09T19:49:38.173Z,5.80
2018-12-09T19:54:49.393Z,2.87
2018-12-09T19:57:23.693Z,2.50
2018-12-09T19:59:59.523Z,2.70
2018-12-09T20:02:31.803Z,2.87
2018-12-09T20:05:04.709Z,2.90
2018-12-09T20:07:36.952Z,2.70
2018-12-09T20:10:10.084Z,3.10
2018-12-09T20:12:42.854Z,3.17
2018-12-09T20:15:16.713Z,2.20
2018-12-09T20:17:52.892Z,1.50
2018-12-09T20:20:25.223Z,0.50
2018-12-09T20:22:59.258Z,0.50
2018-12-09T20:25:31.563Z,0.60
2018-12-09T20:28:03.301Z,1.00
2018-12-09T20:30:38.282Z,1.10
2018-12-09T20:33:11.157Z,1.20
2018-12-09T20:35:44.327Z,1.00
2018-12-09T20:38:16.785Z,0.83
2018-12-09T20:40:51.094Z,1.50
2018-12-09T20:43:24.699Z,1.30
2018-12-09T20:45:58.838Z,1.50
2018-12-09T20:48:32.569Z,1.40
2018-12-09T20:51:06.188Z,0.80
2018-12-09T20:53:38.375Z,0.80
2018-12-09T20:56:11.327Z,0.80
2018-12-09T20:58:45.067Z,0.40
2018-12-09T21:01:18.980Z,0.57
2018-12-09T21:03:51.703Z,3.20
2018-12-09T21:06:23.978Z,2.47
2018-12-09T21:08:56.923Z,1.10
2018-12-09T21:11:29.380Z,0.87
2018-12-09T21:14:01.731Z,1.00
2018-12-09T21:16:34.415Z,0.90
2018-12-09T21:19:07.306Z,1.10
2018-12-09T21:21:39.087Z,1.60
2018-12-09T21:24:11.000Z,1.20
2018-12-09T21:26:43.569Z,1.10
2018-12-09T21:29:15.750Z,1.10
2018-12-09T21:31:49.583Z,1.30
2018-12-09T21:34:22.613Z,1.33
2018-12-09T21:36:55.242Z,1.30
2018-12-09T21:39:28.282Z,1.57
2018-12-09T21:42:02.013Z,1.33
2018-12-09T21:44:36.632Z,1.50
2018-12-09T21:47:10.312Z,1.20
2018-12-09T21:49:43.943Z,1.37
2018-12-09T21:52:15.949Z,1.40
2018-12-09T21:54:48.592Z,1.80
2018-12-09T21:57:21.033Z,1.60
2018-12-09T21:59:52.942Z,1.37
2018-12-09T22:02:24.894Z,1.00
2018-12-09T22:04:56.583Z,1.03
2018-12-09T22:07:28.839Z,1.30
2018-12-09T22:10:00.200Z,1.03
2018-12-09T22:12:31.671Z,0.90
2018-12-09T22:15:02.735Z,0.83
2018-12-09T22:17:33.795Z,0.97
2018-12-09T22:20:04.939Z,0.90
2018-12-09T22:22:35.935Z,1.30
2018-12-09T22:25:07.107Z,1.13
2018-12-09T22:27:38.198Z,1.10
2018-12-09T22:30:09.191Z,1.30
2018-12-09T22:32:40.143Z,1.30
2018-12-09T22:35:11.047Z,1.50
2018-12-09T22:37:42.015Z,1.80
2018-12-09T22:40:12.922Z,1.30
2018-12-09T22:42:43.831Z,1.40
2018-12-09T22:45:14.774Z,1.40
2018-12-09T22:47:45.663Z,1.20
2018-12-09T22:50:16.714Z,1.13
2018-12-09T22:52:47.633Z,1.30
2018-12-09T22:55:18.555Z,1.00
2018-12-09T22:57:49.491Z,1.20
2018-12-09T23:00:28.575Z,1.17
2018-12-09T23:03:04.543Z,1.40
2018-12-09T23:05:35.502Z,1.50
2018-12-09T23:08:06.442Z,1.50
2018-12-09T23:10:37.355Z,1.63
2018-12-09T23:13:08.356Z,1.60
2018-12-09T23:15:39.213Z,1.60
2018-12-09T23:18:10.122Z,1.27
2018-12-09T23:20:40.987Z,1.60
2018-12-09T23:23:11.942Z,1.40
2018-12-09T23:25:42.792Z,1.27
2018-12-09T23:28:13.706Z,1.20
2018-12-09T23:30:44.497Z,1.10
2018-12-09T23:33:15.443Z,1.00
2018-12-09T23:35:46.282Z,0.57
2018-12-09T23:38:17.201Z,0.37
2018-12-09T23:40:48.240Z,0.40
2018-12-09T23:43:19.135Z,0.30
2018-12-09T23:45:49.969Z,0.47
2018-12-09T23:48:20.928Z,0.70
2018-12-09T23:50:51.923Z,0.53
2018-12-09T23:53:22.843Z,0.63
2018-12-09T23:55:53.693Z,1.70
2018-12-09T23:58:24.614Z,2.90
